sensor_id;sensor_type;location;lat;lon;timestamp;P1;durP1;ratioP1;P2;durP2;ratioP2
21014;SDS011;19207;-23.482;-46.500;2023-08-30T00:00:46;34.75;;;15.77;;
21014;SDS011;19207;-23.482;-46.500;2023-08-30T00:03:33;41.20;;;16.70;;
21014;SDS011;19207;-23.482;-46.500;2023-08-30T00:06:20;42.13;;;16.95;;
21014;SDS011;19207;-23.482;-46.500;2023-08-30T00:09:07;35.70;;;16.15;;
21014;SDS011;19207;-23.482;-46.500;2023-08-30T00:11:54;34.20;;;16.12;;
21014;SDS011;19207;-23.482;-46.500;2023-08-30T00:14:41;32.85;;;14.32;;
21014;SDS011;19207;-23.482;-46.500;2023-08-30T00:17:28;32.33;;;16.67;;
21014;SDS011;19207;-23.482;-46.500;2023-08-30T00:20:15;38.65;;;16.95;;
21014;SDS011;19207;-23.482;-46.500;2023-08-30T00:23:02;47.67;;;19.65;;
21014;SDS011;19207;-23.482;-46.500;2023-08-30T00:25:50;46.28;;;22.25;;
21014;SDS011;19207;-23.482;-46.500;2023-08-30T00:28:38;49.50;;;18.92;;
21014;SDS011;19207;-23.482;-46.500;2023-08-30T00:31:25;40.05;;;17.45;;
21014;SDS011;19207;-23.482;-46.500;2023-08-30T00:34:12;34.00;;;17.00;;
21014;SDS011;19207;-23.482;-46.500;2023-08-30T00:36:59;41.15;;;17.25;;
21014;SDS011;19207;-23.482;-46.500;2023-08-30T00:39:46;32.60;;;16.45;;
21014;SDS011;19207;-23.482;-46.500;2023-08-30T00:42:33;39.95;;;17.37;;
21014;SDS011;19207;-23.482;-46.500;2023-08-30T00:45:20;34.20;;;16.70;;
21014;SDS011;19207;-23.482;-46.500;2023-08-30T00:48:07;38.15;;;18.27;;
21014;SDS011;19207;-23.482;-46.500;2023-08-30T00:50:54;39.95;;;18.70;;
21014;SDS011;19207;-23.482;-46.500;2023-08-30T00:53:41;48.75;;;19.25;;
21014;SDS011;19207;-23.482;-46.500;2023-08-30T00:56:28;49.97;;;20.52;;
21014;SDS011;19207;-23.482;-46.500;2023-08-30T00:59:15;47.08;;;18.95;;
21014;SDS011;19207;-23.482;-46.500;2023-08-30T01:02:02;46.47;;;19.92;;
21014;SDS011;19207;-23.482;-46.500;2023-08-30T01:04:51;38.38;;;17.83;;
21014;SDS011;19207;-23.482;-46.500;2023-08-30T01:07:38;47.85;;;19.02;;
21014;SDS011;19207;-23.482;-46.500;2023-08-30T01:13:33;48.22;;;22.30;;
21014;SDS011;19207;-23.482;-46.500;2023-08-30T01:16:22;45.10;;;21.58;;
21014;SDS011;19207;-23.482;-46.500;2023-08-30T01:22:01;41.00;;;19.40;;
21014;SDS011;19207;-23.482;-46.500;2023-08-30T01:25:11;47.95;;;19.73;;
21014;SDS011;19207;-23.482;-46.500;2023-08-30T01:28:00;35.28;;;17.10;;
21014;SDS011;19207;-23.482;-46.500;2023-08-30T01:30:48;41.70;;;17.20;;
21014;SDS011;19207;-23.482;-46.500;2023-08-30T01:33:36;38.83;;;17.85;;
21014;SDS011;19207;-23.482;-46.500;2023-08-30T01:36:26;44.40;;;18.83;;
21014;SDS011;19207;-23.482;-46.500;2023-08-30T01:39:14;43.35;;;17.62;;
21014;SDS011;19207;-23.482;-46.500;2023-08-30T01:42:01;40.15;;;18.25;;
21014;SDS011;19207;-23.482;-46.500;2023-08-30T01:44:49;39.75;;;18.17;;
21014;SDS011;19207;-23.482;-46.500;2023-08-30T01:47:36;48.38;;;18.83;;
21014;SDS011;19207;-23.482;-46.500;2023-08-30T01:50:24;39.92;;;18.23;;
21014;SDS011;19207;-23.482;-46.500;2023-08-30T01:53:11;45.00;;;17.60;;
21014;SDS011;19207;-23.482;-46.500;2023-08-30T01:55:58;41.53;;;18.77;;
21014;SDS011;19207;-23.482;-46.500;2023-08-30T01:58:45;41.22;;;18.35;;
21014;SDS011;19207;-23.482;-46.500;2023-08-30T02:01:32;41.20;;;17.73;;
21014;SDS011;19207;-23.482;-46.500;2023-08-30T02:04:19;39.97;;;17.45;;
21014;SDS011;19207;-23.482;-46.500;2023-08-30T02:07:20;39.30;;;16.92;;
21014;SDS011;19207;-23.482;-46.500;2023-08-30T02:10:12;43.28;;;17.33;;
21014;SDS011;19207;-23.482;-46.500;2023-08-30T02:13:02;39.03;;;17.25;;
21014;SDS011;19207;-23.482;-46.500;2023-08-30T02:15:50;42.60;;;17.73;;
21014;SDS011;19207;-23.482;-46.500;2023-08-30T02:18:37;41.15;;;17.27;;
21014;SDS011;19207;-23.482;-46.500;2023-08-30T02:21:24;44.03;;;16.73;;
21014;SDS011;19207;-23.482;-46.500;2023-08-30T02:24:12;43.92;;;17.23;;
21014;SDS011;19207;-23.482;-46.500;2023-08-30T02:26:58;42.22;;;17.45;;
21014;SDS011;19207;-23.482;-46.500;2023-08-30T02:29:45;41.85;;;17.12;;
21014;SDS011;19207;-23.482;-46.500;2023-08-30T02:32:33;50.65;;;17.83;;
21014;SDS011;19207;-23.482;-46.500;2023-08-30T02:35:20;46.17;;;18.50;;
21014;SDS011;19207;-23.482;-46.500;2023-08-30T02:38:07;41.95;;;17.33;;
21014;SDS011;19207;-23.482;-46.500;2023-08-30T02:40:53;40.85;;;17.42;;
21014;SDS011;19207;-23.482;-46.500;2023-08-30T02:43:40;37.55;;;17.52;;
21014;SDS011;19207;-23.482;-46.500;2023-08-30T02:46:26;42.05;;;17.00;;
21014;SDS011;19207;-23.482;-46.500;2023-08-30T02:49:13;40.28;;;17.37;;
21014;SDS011;19207;-23.482;-46.500;2023-08-30T02:51:59;45.97;;;17.95;;
21014;SDS011;19207;-23.482;-46.500;2023-08-30T02:54:46;38.40;;;17.05;;
21014;SDS011;19207;-23.482;-46.500;2023-08-30T02:57:33;46.67;;;18.62;;
21014;SDS011;19207;-23.482;-46.500;2023-08-30T03:00:20;39.25;;;19.02;;
21014;SDS011;19207;-23.482;-46.500;2023-08-30T03:03:07;43.38;;;20.48;;
21014;SDS011;19207;-23.482;-46.500;2023-08-30T03:05:54;43.65;;;19.65;;
21014;SDS011;19207;-23.482;-46.500;2023-08-30T03:08:41;54.30;;;20.92;;
21014;SDS011;19207;-23.482;-46.500;2023-08-30T03:11:29;53.35;;;24.00;;
21014;SDS011;19207;-23.482;-46.500;2023-08-30T03:14:15;59.30;;;24.20;;
21014;SDS011;19207;-23.482;-46.500;2023-08-30T03:17:02;49.75;;;24.73;;
21014;SDS011;19207;-23.482;-46.500;2023-08-30T03:19:50;56.28;;;26.92;;
21014;SDS011;19207;-23.482;-46.500;2023-08-30T03:22:41;57.05;;;26.05;;
21014;SDS011;19207;-23.482;-46.500;2023-08-30T03:25:31;55.72;;;26.42;;
21014;SDS011;19207;-23.482;-46.500;2023-08-30T03:28:18;58.72;;;28.73;;
21014;SDS011;19207;-23.482;-46.500;2023-08-30T03:34:01;54.50;;;25.90;;
21014;SDS011;19207;-23.482;-46.500;2023-08-30T03:36:48;56.37;;;25.05;;
21014;SDS011;19207;-23.482;-46.500;2023-08-30T03:39:39;54.70;;;25.50;;
21014;SDS011;19207;-23.482;-46.500;2023-08-30T03:42:26;51.10;;;23.08;;
21014;SDS011;19207;-23.482;-46.500;2023-08-30T03:45:12;50.12;;;22.08;;
21014;SDS011;19207;-23.482;-46.500;2023-08-30T03:48:11;58.38;;;22.98;;
21014;SDS011;19207;-23.482;-46.500;2023-08-30T03:50:58;55.28;;;23.08;;
21014;SDS011;19207;-23.482;-46.500;2023-08-30T03:53:45;51.08;;;22.58;;
21014;SDS011;19207;-23.482;-46.500;2023-08-30T03:56:32;44.63;;;21.55;;
21014;SDS011;19207;-23.482;-46.500;2023-08-30T03:59:19;47.90;;;21.55;;
21014;SDS011;19207;-23.482;-46.500;2023-08-30T04:02:08;42.45;;;21.35;;
21014;SDS011;19207;-23.482;-46.500;2023-08-30T04:04:55;44.85;;;20.27;;
21014;SDS011;19207;-23.482;-46.500;2023-08-30T04:07:42;44.83;;;18.85;;
21014;SDS011;19207;-23.482;-46.500;2023-08-30T04:10:29;39.90;;;18.12;;
21014;SDS011;19207;-23.482;-46.500;2023-08-30T04:13:16;42.75;;;18.83;;
21014;SDS011;19207;-23.482;-46.500;2023-08-30T04:16:03;40.03;;;18.10;;
21014;SDS011;19207;-23.482;-46.500;2023-08-30T04:18:50;38.70;;;18.00;;
21014;SDS011;19207;-23.482;-46.500;2023-08-30T04:21:37;42.03;;;18.37;;
21014;SDS011;19207;-23.482;-46.500;2023-08-30T04:24:24;40.97;;;18.50;;
21014;SDS011;19207;-23.482;-46.500;2023-08-30T04:27:11;46.95;;;19.87;;
21014;SDS011;19207;-23.482;-46.500;2023-08-30T04:29:58;41.72;;;20.60;;
21014;SDS011;19207;-23.482;-46.500;2023-08-30T04:32:46;48.17;;;23.20;;
21014;SDS011;19207;-23.482;-46.500;2023-08-30T04:35:33;54.22;;;24.48;;
21014;SDS011;19207;-23.482;-46.500;2023-08-30T04:38:21;63.22;;;29.52;;
21014;SDS011;19207;-23.482;-46.500;2023-08-30T04:41:08;57.13;;;26.55;;
21014;SDS011;19207;-23.482;-46.500;2023-08-30T04:43:55;53.05;;;26.37;;
21014;SDS011;19207;-23.482;-46.500;2023-08-30T04:46:42;51.97;;;26.73;;
21014;SDS011;19207;-23.482;-46.500;2023-08-30T04:49:29;51.58;;;24.12;;
21014;SDS011;19207;-23.482;-46.500;2023-08-30T04:52:17;58.30;;;24.12;;
21014;SDS011;19207;-23.482;-46.500;2023-08-30T04:55:04;67.22;;;26.52;;
21014;SDS011;19207;-23.482;-46.500;2023-08-30T04:57:51;56.63;;;24.73;;
21014;SDS011;19207;-23.482;-46.500;2023-08-30T05:00:38;51.33;;;23.80;;
21014;SDS011;19207;-23.482;-46.500;2023-08-30T05:03:26;53.03;;;22.10;;
21014;SDS011;19207;-23.482;-46.500;2023-08-30T05:06:13;51.97;;;23.60;;
21014;SDS011;19207;-23.482;-46.500;2023-08-30T05:09:02;54.70;;;23.33;;
21014;SDS011;19207;-23.482;-46.500;2023-08-30T05:11:49;55.10;;;23.10;;
21014;SDS011;19207;-23.482;-46.500;2023-08-30T05:14:36;58.05;;;24.37;;
21014;SDS011;19207;-23.482;-46.500;2023-08-30T05:17:24;55.33;;;24.50;;
21014;SDS011;19207;-23.482;-46.500;2023-08-30T05:20:14;64.82;;;26.52;;
21014;SDS011;19207;-23.482;-46.500;2023-08-30T05:23:01;62.62;;;22.92;;
21014;SDS011;19207;-23.482;-46.500;2023-08-30T05:25:48;57.00;;;23.12;;
21014;SDS011;19207;-23.482;-46.500;2023-08-30T05:28:35;49.03;;;22.25;;
21014;SDS011;19207;-23.482;-46.500;2023-08-30T05:31:22;52.88;;;23.45;;
21014;SDS011;19207;-23.482;-46.500;2023-08-30T05:34:10;70.03;;;30.67;;
21014;SDS011;19207;-23.482;-46.500;2023-08-30T05:36:59;57.25;;;26.60;;
21014;SDS011;19207;-23.482;-46.500;2023-08-30T05:39:46;49.08;;;23.95;;
21014;SDS011;19207;-23.482;-46.500;2023-08-30T05:42:33;56.10;;;25.67;;
21014;SDS011;19207;-23.482;-46.500;2023-08-30T05:45:25;58.33;;;24.33;;
21014;SDS011;19207;-23.482;-46.500;2023-08-30T05:48:15;54.25;;;22.48;;
21014;SDS011;19207;-23.482;-46.500;2023-08-30T05:51:02;57.25;;;24.92;;
21014;SDS011;19207;-23.482;-46.500;2023-08-30T05:53:49;52.67;;;24.23;;
21014;SDS011;19207;-23.482;-46.500;2023-08-30T05:56:36;56.33;;;24.08;;
21014;SDS011;19207;-23.482;-46.500;2023-08-30T05:59:23;57.28;;;24.55;;
21014;SDS011;19207;-23.482;-46.500;2023-08-30T06:02:11;55.28;;;24.98;;
21014;SDS011;19207;-23.482;-46.500;2023-08-30T06:04:58;66.07;;;26.92;;
21014;SDS011;19207;-23.482;-46.500;2023-08-30T06:07:45;54.45;;;26.35;;
21014;SDS011;19207;-23.482;-46.500;2023-08-30T06:10:41;63.55;;;27.33;;
21014;SDS011;19207;-23.482;-46.500;2023-08-30T06:13:28;62.88;;;26.70;;
21014;SDS011;19207;-23.482;-46.500;2023-08-30T06:16:15;68.85;;;27.55;;
21014;SDS011;19207;-23.482;-46.500;2023-08-30T06:19:02;70.35;;;29.10;;
21014;SDS011;19207;-23.482;-46.500;2023-08-30T06:21:50;72.97;;;30.27;;
21014;SDS011;19207;-23.482;-46.500;2023-08-30T06:24:37;78.22;;;28.90;;
21014;SDS011;19207;-23.482;-46.500;2023-08-30T06:27:24;80.80;;;31.30;;
21014;SDS011;19207;-23.482;-46.500;2023-08-30T06:30:11;93.10;;;35.72;;
21014;SDS011;19207;-23.482;-46.500;2023-08-30T06:32:58;91.63;;;33.88;;
21014;SDS011;19207;-23.482;-46.500;2023-08-30T06:35:47;114.30;;;39.15;;
21014;SDS011;19207;-23.482;-46.500;2023-08-30T06:38:36;92.22;;;33.05;;
21014;SDS011;19207;-23.482;-46.500;2023-08-30T06:41:23;73.00;;;27.52;;
21014;SDS011;19207;-23.482;-46.500;2023-08-30T06:44:10;54.67;;;22.25;;
21014;SDS011;19207;-23.482;-46.500;2023-08-30T06:46:58;60.25;;;23.45;;
21014;SDS011;19207;-23.482;-46.500;2023-08-30T06:49:48;55.83;;;21.17;;
21014;SDS011;19207;-23.482;-46.500;2023-08-30T06:52:35;48.13;;;17.87;;
21014;SDS011;19207;-23.482;-46.500;2023-08-30T06:55:22;40.08;;;18.10;;
21014;SDS011;19207;-23.482;-46.500;2023-08-30T06:58:09;35.85;;;16.90;;
21014;SDS011;19207;-23.482;-46.500;2023-08-30T07:00:59;34.08;;;15.88;;
21014;SDS011;19207;-23.482;-46.500;2023-08-30T07:03:48;44.97;;;16.40;;
21014;SDS011;19207;-23.482;-46.500;2023-08-30T07:06:36;38.20;;;16.80;;
21014;SDS011;19207;-23.482;-46.500;2023-08-30T07:09:23;38.90;;;17.17;;
21014;SDS011;19207;-23.482;-46.500;2023-08-30T07:12:14;36.28;;;17.92;;
21014;SDS011;19207;-23.482;-46.500;2023-08-30T07:15:02;38.45;;;17.23;;
21014;SDS011;19207;-23.482;-46.500;2023-08-30T07:17:52;37.28;;;18.48;;
21014;SDS011;19207;-23.482;-46.500;2023-08-30T07:20:39;50.90;;;20.88;;
21014;SDS011;19207;-23.482;-46.500;2023-08-30T07:23:26;49.38;;;21.15;;
21014;SDS011;19207;-23.482;-46.500;2023-08-30T07:26:13;50.47;;;22.95;;
21014;SDS011;19207;-23.482;-46.500;2023-08-30T07:29:03;65.55;;;26.10;;
21014;SDS011;19207;-23.482;-46.500;2023-08-30T07:31:51;47.33;;;21.85;;
21014;SDS011;19207;-23.482;-46.500;2023-08-30T07:34:39;52.70;;;22.62;;
21014;SDS011;19207;-23.482;-46.500;2023-08-30T07:37:26;46.40;;;20.42;;
21014;SDS011;19207;-23.482;-46.500;2023-08-30T07:40:13;46.10;;;19.27;;
21014;SDS011;19207;-23.482;-46.500;2023-08-30T07:43:01;44.97;;;19.83;;
21014;SDS011;19207;-23.482;-46.500;2023-08-30T07:45:48;42.65;;;20.12;;
21014;SDS011;19207;-23.482;-46.500;2023-08-30T07:48:35;32.15;;;16.20;;
21014;SDS011;19207;-23.482;-46.500;2023-08-30T07:51:25;36.65;;;15.98;;
21014;SDS011;19207;-23.482;-46.500;2023-08-30T07:54:12;54.78;;;19.52;;
21014;SDS011;19207;-23.482;-46.500;2023-08-30T07:56:59;40.03;;;17.87;;
21014;SDS011;19207;-23.482;-46.500;2023-08-30T07:59:47;43.75;;;17.08;;
21014;SDS011;19207;-23.482;-46.500;2023-08-30T08:02:40;35.92;;;16.55;;
21014;SDS011;19207;-23.482;-46.500;2023-08-30T08:05:27;41.50;;;18.10;;
21014;SDS011;19207;-23.482;-46.500;2023-08-30T08:08:20;34.42;;;15.82;;
21014;SDS011;19207;-23.482;-46.500;2023-08-30T08:11:07;36.33;;;15.98;;
21014;SDS011;19207;-23.482;-46.500;2023-08-30T08:13:54;33.42;;;15.27;;
21014;SDS011;19207;-23.482;-46.500;2023-08-30T08:16:41;31.17;;;14.15;;
21014;SDS011;19207;-23.482;-46.500;2023-08-30T08:19:31;31.20;;;14.45;;
21014;SDS011;19207;-23.482;-46.500;2023-08-30T08:22:19;29.67;;;13.85;;
21014;SDS011;19207;-23.482;-46.500;2023-08-30T08:25:06;38.47;;;14.25;;
21014;SDS011;19207;-23.482;-46.500;2023-08-30T08:27:55;35.60;;;14.75;;
21014;SDS011;19207;-23.482;-46.500;2023-08-30T08:30:42;36.15;;;15.30;;
21014;SDS011;19207;-23.482;-46.500;2023-08-30T08:33:33;27.77;;;13.82;;
21014;SDS011;19207;-23.482;-46.500;2023-08-30T08:36:21;29.42;;;14.85;;
21014;SDS011;19207;-23.482;-46.500;2023-08-30T08:39:12;31.60;;;14.43;;
21014;SDS011;19207;-23.482;-46.500;2023-08-30T08:42:03;30.88;;;14.15;;
21014;SDS011;19207;-23.482;-46.500;2023-08-30T08:44:54;39.30;;;15.77;;
21014;SDS011;19207;-23.482;-46.500;2023-08-30T08:47:41;30.17;;;14.98;;
21014;SDS011;19207;-23.482;-46.500;2023-08-30T08:50:28;36.55;;;16.23;;
21014;SDS011;19207;-23.482;-46.500;2023-08-30T08:53:16;45.47;;;16.77;;
21014;SDS011;19207;-23.482;-46.500;2023-08-30T08:56:06;39.85;;;17.12;;
21014;SDS011;19207;-23.482;-46.500;2023-08-30T08:58:54;44.88;;;18.45;;
21014;SDS011;19207;-23.482;-46.500;2023-08-30T09:01:44;43.13;;;19.35;;
21014;SDS011;19207;-23.482;-46.500;2023-08-30T09:04:34;42.35;;;18.33;;
21014;SDS011;19207;-23.482;-46.500;2023-08-30T09:07:25;39.35;;;18.20;;
21014;SDS011;19207;-23.482;-46.500;2023-08-30T09:10:12;41.58;;;18.85;;
21014;SDS011;19207;-23.482;-46.500;2023-08-30T09:12:59;41.65;;;18.73;;
21014;SDS011;19207;-23.482;-46.500;2023-08-30T09:15:47;44.13;;;17.87;;
21014;SDS011;19207;-23.482;-46.500;2023-08-30T09:18:37;46.17;;;17.37;;
21014;SDS011;19207;-23.482;-46.500;2023-08-30T09:21:24;43.85;;;17.10;;
21014;SDS011;19207;-23.482;-46.500;2023-08-30T09:24:11;47.00;;;18.35;;
21014;SDS011;19207;-23.482;-46.500;2023-08-30T09:26:58;43.10;;;17.98;;
21014;SDS011;19207;-23.482;-46.500;2023-08-30T09:29:45;50.50;;;20.52;;
21014;SDS011;19207;-23.482;-46.500;2023-08-30T09:32:38;41.00;;;17.30;;
21014;SDS011;19207;-23.482;-46.500;2023-08-30T09:35:25;48.85;;;18.40;;
21014;SDS011;19207;-23.482;-46.500;2023-08-30T09:38:19;49.58;;;19.67;;
21014;SDS011;19207;-23.482;-46.500;2023-08-30T09:41:06;57.38;;;24.12;;
21014;SDS011;19207;-23.482;-46.500;2023-08-30T09:43:54;81.85;;;30.73;;
21014;SDS011;19207;-23.482;-46.500;2023-08-30T09:46:54;83.00;;;34.78;;
21014;SDS011;19207;-23.482;-46.500;2023-08-30T09:49:45;72.10;;;29.10;;
21014;SDS011;19207;-23.482;-46.500;2023-08-30T09:52:33;70.82;;;28.42;;
21014;SDS011;19207;-23.482;-46.500;2023-08-30T09:55:31;66.22;;;26.25;;
21014;SDS011;19207;-23.482;-46.500;2023-08-30T09:58:18;65.43;;;24.00;;
21014;SDS011;19207;-23.482;-46.500;2023-08-30T10:01:09;79.57;;;31.30;;
21014;SDS011;19207;-23.482;-46.500;2023-08-30T10:03:57;65.20;;;28.23;;
21014;SDS011;19207;-23.482;-46.500;2023-08-30T10:06:44;72.40;;;30.40;;
21014;SDS011;19207;-23.482;-46.500;2023-08-30T10:09:32;65.82;;;28.00;;
21014;SDS011;19207;-23.482;-46.500;2023-08-30T10:12:22;83.22;;;34.85;;
21014;SDS011;19207;-23.482;-46.500;2023-08-30T10:15:10;69.15;;;26.00;;
21014;SDS011;19207;-23.482;-46.500;2023-08-30T10:17:57;60.10;;;24.73;;
21014;SDS011;19207;-23.482;-46.500;2023-08-30T10:20:44;58.20;;;24.33;;
21014;SDS011;19207;-23.482;-46.500;2023-08-30T10:23:32;65.75;;;24.75;;
21014;SDS011;19207;-23.482;-46.500;2023-08-30T10:26:25;60.58;;;24.33;;
21014;SDS011;19207;-23.482;-46.500;2023-08-30T10:29:15;69.28;;;25.77;;
21014;SDS011;19207;-23.482;-46.500;2023-08-30T10:32:03;78.37;;;30.20;;
21014;SDS011;19207;-23.482;-46.500;2023-08-30T10:34:50;76.25;;;30.62;;
21014;SDS011;19207;-23.482;-46.500;2023-08-30T10:37:53;73.87;;;27.55;;
21014;SDS011;19207;-23.482;-46.500;2023-08-30T10:40:47;62.33;;;24.37;;
21014;SDS011;19207;-23.482;-46.500;2023-08-30T10:43:37;55.47;;;24.05;;
21014;SDS011;19207;-23.482;-46.500;2023-08-30T10:46:31;58.63;;;24.83;;
21014;SDS011;19207;-23.482;-46.500;2023-08-30T10:49:18;50.83;;;22.08;;
21014;SDS011;19207;-23.482;-46.500;2023-08-30T10:52:11;57.30;;;23.27;;
21014;SDS011;19207;-23.482;-46.500;2023-08-30T10:55:08;55.25;;;22.73;;
21014;SDS011;19207;-23.482;-46.500;2023-08-30T10:58:00;57.83;;;23.58;;
21014;SDS011;19207;-23.482;-46.500;2023-08-30T11:00:48;54.78;;;24.12;;
21014;SDS011;19207;-23.482;-46.500;2023-08-30T11:03:34;60.45;;;24.40;;
21014;SDS011;19207;-23.482;-46.500;2023-08-30T11:06:24;58.72;;;24.45;;
21014;SDS011;19207;-23.482;-46.500;2023-08-30T11:09:29;60.22;;;26.05;;
21014;SDS011;19207;-23.482;-46.500;2023-08-30T11:12:18;59.83;;;26.10;;
21014;SDS011;19207;-23.482;-46.500;2023-08-30T11:15:10;54.83;;;25.10;;
21014;SDS011;19207;-23.482;-46.500;2023-08-30T11:18:02;55.12;;;25.50;;
21014;SDS011;19207;-23.482;-46.500;2023-08-30T11:21:01;54.00;;;25.62;;
21014;SDS011;19207;-23.482;-46.500;2023-08-30T11:23:48;57.10;;;25.20;;
21014;SDS011;19207;-23.482;-46.500;2023-08-30T11:26:35;55.38;;;25.95;;
21014;SDS011;19207;-23.482;-46.500;2023-08-30T11:29:26;52.53;;;25.15;;
21014;SDS011;19207;-23.482;-46.500;2023-08-30T11:32:18;54.45;;;25.37;;
21014;SDS011;19207;-23.482;-46.500;2023-08-30T11:35:06;49.40;;;24.63;;
21014;SDS011;19207;-23.482;-46.500;2023-08-30T11:37:53;49.90;;;24.92;;
21014;SDS011;19207;-23.482;-46.500;2023-08-30T11:40:40;56.85;;;26.23;;
21014;SDS011;19207;-23.482;-46.500;2023-08-30T11:43:27;58.42;;;26.37;;
21014;SDS011;19207;-23.482;-46.500;2023-08-30T11:46:14;54.08;;;24.95;;
21014;SDS011;19207;-23.482;-46.500;2023-08-30T11:49:02;55.92;;;27.45;;
21014;SDS011;19207;-23.482;-46.500;2023-08-30T11:51:49;60.03;;;22.98;;
21014;SDS011;19207;-23.482;-46.500;2023-08-30T11:54:38;50.40;;;24.00;;
21014;SDS011;19207;-23.482;-46.500;2023-08-30T11:57:33;52.97;;;31.52;;
21014;SDS011;19207;-23.482;-46.500;2023-08-30T12:00:23;46.25;;;21.83;;
21014;SDS011;19207;-23.482;-46.500;2023-08-30T12:03:14;42.40;;;19.30;;
21014;SDS011;19207;-23.482;-46.500;2023-08-30T12:06:01;42.00;;;18.90;;
21014;SDS011;19207;-23.482;-46.500;2023-08-30T12:08:48;30.77;;;16.00;;
21014;SDS011;19207;-23.482;-46.500;2023-08-30T12:11:44;28.58;;;14.98;;
21014;SDS011;19207;-23.482;-46.500;2023-08-30T12:14:34;30.52;;;14.15;;
21014;SDS011;19207;-23.482;-46.500;2023-08-30T12:17:21;28.42;;;14.45;;
21014;SDS011;19207;-23.482;-46.500;2023-08-30T12:20:15;27.10;;;13.27;;
21014;SDS011;19207;-23.482;-46.500;2023-08-30T12:23:24;18.58;;;11.65;;
21014;SDS011;19207;-23.482;-46.500;2023-08-30T12:26:14;23.42;;;12.32;;
21014;SDS011;19207;-23.482;-46.500;2023-08-30T12:29:04;25.60;;;13.02;;
21014;SDS011;19207;-23.482;-46.500;2023-08-30T12:31:54;20.95;;;12.57;;
21014;SDS011;19207;-23.482;-46.500;2023-08-30T12:34:41;20.20;;;11.20;;
21014;SDS011;19207;-23.482;-46.500;2023-08-30T12:37:28;18.92;;;10.68;;
21014;SDS011;19207;-23.482;-46.500;2023-08-30T12:40:15;19.80;;;10.90;;
21014;SDS011;19207;-23.482;-46.500;2023-08-30T12:43:03;29.10;;;13.70;;
21014;SDS011;19207;-23.482;-46.500;2023-08-30T12:45:53;23.38;;;13.65;;
21014;SDS011;19207;-23.482;-46.500;2023-08-30T12:48:44;22.15;;;13.02;;
21014;SDS011;19207;-23.482;-46.500;2023-08-30T12:51:34;23.08;;;12.85;;
21014;SDS011;19207;-23.482;-46.500;2023-08-30T12:54:21;22.08;;;13.52;;
21014;SDS011;19207;-23.482;-46.500;2023-08-30T12:57:08;20.55;;;11.23;;
21014;SDS011;19207;-23.482;-46.500;2023-08-30T12:59:58;19.77;;;11.68;;
21014;SDS011;19207;-23.482;-46.500;2023-08-30T13:02:45;18.12;;;10.52;;
21014;SDS011;19207;-23.482;-46.500;2023-08-30T13:05:32;22.60;;;11.75;;
21014;SDS011;19207;-23.482;-46.500;2023-08-30T13:08:20;17.33;;;11.65;;
21014;SDS011;19207;-23.482;-46.500;2023-08-30T13:11:12;20.37;;;12.45;;
21014;SDS011;19207;-23.482;-46.500;2023-08-30T13:14:00;17.85;;;11.60;;
21014;SDS011;19207;-23.482;-46.500;2023-08-30T13:16:47;19.52;;;11.00;;
21014;SDS011;19207;-23.482;-46.500;2023-08-30T13:19:35;16.92;;;10.20;;
21014;SDS011;19207;-23.482;-46.500;2023-08-30T13:22:22;16.98;;;11.55;;
21014;SDS011;19207;-23.482;-46.500;2023-08-30T13:25:18;28.33;;;11.05;;
21014;SDS011;19207;-23.482;-46.500;2023-08-30T13:28:14;18.73;;;10.85;;
21014;SDS011;19207;-23.482;-46.500;2023-08-30T13:31:01;20.67;;;10.32;;
21014;SDS011;19207;-23.482;-46.500;2023-08-30T13:33:58;18.33;;;11.02;;
21014;SDS011;19207;-23.482;-46.500;2023-08-30T13:36:45;23.27;;;12.05;;
21014;SDS011;19207;-23.482;-46.500;2023-08-30T13:39:32;18.15;;;10.63;;
21014;SDS011;19207;-23.482;-46.500;2023-08-30T13:42:22;25.80;;;18.33;;
21014;SDS011;19207;-23.482;-46.500;2023-08-30T13:45:09;24.67;;;12.00;;
21014;SDS011;19207;-23.482;-46.500;2023-08-30T13:47:59;19.42;;;11.27;;
21014;SDS011;19207;-23.482;-46.500;2023-08-30T13:50:50;18.90;;;10.02;;
21014;SDS011;19207;-23.482;-46.500;2023-08-30T13:53:38;18.10;;;10.52;;
21014;SDS011;19207;-23.482;-46.500;2023-08-30T13:56:25;15.93;;;11.38;;
21014;SDS011;19207;-23.482;-46.500;2023-08-30T13:59:12;16.95;;;11.15;;
21014;SDS011;19207;-23.482;-46.500;2023-08-30T14:01:59;19.00;;;10.55;;
21014;SDS011;19207;-23.482;-46.500;2023-08-30T14:04:46;18.70;;;10.93;;
21014;SDS011;19207;-23.482;-46.500;2023-08-30T14:07:34;21.17;;;10.25;;
21014;SDS011;19207;-23.482;-46.500;2023-08-30T14:10:21;19.12;;;11.18;;
21014;SDS011;19207;-23.482;-46.500;2023-08-30T14:13:17;17.48;;;10.90;;
21014;SDS011;19207;-23.482;-46.500;2023-08-30T14:16:08;16.75;;;10.07;;
21014;SDS011;19207;-23.482;-46.500;2023-08-30T14:18:58;16.98;;;9.95;;
21014;SDS011;19207;-23.482;-46.500;2023-08-30T14:21:49;17.37;;;9.93;;
21014;SDS011;19207;-23.482;-46.500;2023-08-30T14:24:43;15.57;;;9.77;;
21014;SDS011;19207;-23.482;-46.500;2023-08-30T14:27:48;17.77;;;10.32;;
21014;SDS011;19207;-23.482;-46.500;2023-08-30T14:30:35;22.62;;;10.38;;
21014;SDS011;19207;-23.482;-46.500;2023-08-30T14:33:22;14.07;;;9.50;;
21014;SDS011;19207;-23.482;-46.500;2023-08-30T14:36:09;13.48;;;9.20;;
21014;SDS011;19207;-23.482;-46.500;2023-08-30T14:38:56;12.80;;;9.60;;
21014;SDS011;19207;-23.482;-46.500;2023-08-30T14:41:44;18.75;;;9.75;;
21014;SDS011;19207;-23.482;-46.500;2023-08-30T14:44:31;14.70;;;10.07;;
21014;SDS011;19207;-23.482;-46.500;2023-08-30T14:47:18;13.95;;;9.38;;
21014;SDS011;19207;-23.482;-46.500;2023-08-30T14:50:06;14.43;;;9.68;;
21014;SDS011;19207;-23.482;-46.500;2023-08-30T14:52:53;13.25;;;9.18;;
21014;SDS011;19207;-23.482;-46.500;2023-08-30T14:55:44;15.38;;;9.05;;
21014;SDS011;19207;-23.482;-46.500;2023-08-30T14:58:31;15.18;;;9.48;;
21014;SDS011;19207;-23.482;-46.500;2023-08-30T15:01:19;11.57;;;8.48;;
21014;SDS011;19207;-23.482;-46.500;2023-08-30T15:04:08;12.10;;;7.32;;
21014;SDS011;19207;-23.482;-46.500;2023-08-30T15:06:57;11.50;;;7.57;;
21014;SDS011;19207;-23.482;-46.500;2023-08-30T15:09:44;11.63;;;7.90;;
21014;SDS011;19207;-23.482;-46.500;2023-08-30T15:12:31;15.13;;;10.48;;
21014;SDS011;19207;-23.482;-46.500;2023-08-30T15:15:18;15.63;;;7.28;;
21014;SDS011;19207;-23.482;-46.500;2023-08-30T15:18:08;14.85;;;8.55;;
21014;SDS011;19207;-23.482;-46.500;2023-08-30T15:20:56;11.93;;;8.27;;
21014;SDS011;19207;-23.482;-46.500;2023-08-30T15:23:45;11.88;;;8.15;;
21014;SDS011;19207;-23.482;-46.500;2023-08-30T15:26:35;12.63;;;8.00;;
21014;SDS011;19207;-23.482;-46.500;2023-08-30T15:29:22;15.23;;;8.25;;
21014;SDS011;19207;-23.482;-46.500;2023-08-30T15:32:30;14.60;;;8.15;;
21014;SDS011;19207;-23.482;-46.500;2023-08-30T15:35:21;12.32;;;7.93;;
21014;SDS011;19207;-23.482;-46.500;2023-08-30T15:38:08;15.38;;;7.50;;
21014;SDS011;19207;-23.482;-46.500;2023-08-30T15:40:58;15.95;;;7.70;;
21014;SDS011;19207;-23.482;-46.500;2023-08-30T15:43:51;15.32;;;8.60;;
21014;SDS011;19207;-23.482;-46.500;2023-08-30T15:46:39;12.90;;;8.23;;
21014;SDS011;19207;-23.482;-46.500;2023-08-30T15:49:37;18.70;;;8.52;;
21014;SDS011;19207;-23.482;-46.500;2023-08-30T15:52:30;12.73;;;8.27;;
21014;SDS011;19207;-23.482;-46.500;2023-08-30T15:55:17;17.77;;;14.32;;